sensor_id;sensor_type;location;lat;lon;timestamp;temperature;humidity
37938;DHT22;23763;48.130;11.602;2022-10-18T00:01:41;14.10;99.90
37938;DHT22;23763;48.130;11.602;2022-10-18T00:04:06;14.20;99.90
37938;DHT22;23763;48.130;11.602;2022-10-18T00:06:32;14.20;99.90
37938;DHT22;23763;48.130;11.602;2022-10-18T00:08:58;14.20;99.90
37938;DHT22;23763;48.130;11.602;2022-10-18T00:11:23;14.20;99.90
37938;DHT22;23763;48.130;11.602;2022-10-18T00:13:49;14.20;99.90
37938;DHT22;23763;48.130;11.602;2022-10-18T00:16:16;14.20;99.90
37938;DHT22;23763;48.130;11.602;2022-10-18T00:18:42;14.10;99.90
37938;DHT22;23763;48.130;11.602;2022-10-18T00:21:16;14.10;99.90
37938;DHT22;23763;48.130;11.602;2022-10-18T00:23:42;14.10;99.90
37938;DHT22;23763;48.130;11.602;2022-10-18T00:26:13;14.00;99.90
37938;DHT22;23763;48.130;11.602;2022-10-18T00:28:39;14.00;99.90
37938;DHT22;23763;48.130;11.602;2022-10-18T00:31:14;14.00;99.90
37938;DHT22;23763;48.130;11.602;2022-10-18T00:33:41;14.00;99.90
37938;DHT22;23763;48.130;11.602;2022-10-18T00:36:09;14.10;99.90
37938;DHT22;23763;48.130;11.602;2022-10-18T00:38:34;14.00;99.90
37938;DHT22;23763;48.130;11.602;2022-10-18T00:41:00;14.00;99.90
37938;DHT22;23763;48.130;11.602;2022-10-18T00:43:26;14.00;99.90
37938;DHT22;23763;48.130;11.602;2022-10-18T00:45:51;14.00;99.90
37938;DHT22;23763;48.130;11.602;2022-10-18T00:48:18;13.90;99.90
37938;DHT22;23763;48.130;11.602;2022-10-18T00:50:46;13.90;99.90
37938;DHT22;23763;48.130;11.602;2022-10-18T00:53:16;13.90;99.90
37938;DHT22;23763;48.130;11.602;2022-10-18T00:55:42;13.90;99.90
37938;DHT22;23763;48.130;11.602;2022-10-18T00:58:10;13.90;99.90
37938;DHT22;23763;48.130;11.602;2022-10-18T01:00:37;13.90;99.90
37938;DHT22;23763;48.130;11.602;2022-10-18T01:03:05;13.90;99.90
37938;DHT22;23763;48.130;11.602;2022-10-18T01:05:32;13.90;99.90
37938;DHT22;23763;48.130;11.602;2022-10-18T01:19:28;13.80;99.90
37938;DHT22;23763;48.130;11.602;2022-10-18T01:21:46;13.80;99.90
37938;DHT22;23763;48.130;11.602;2022-10-18T01:32:42;13.60;99.90
37938;DHT22;23763;48.130;11.602;2022-10-18T01:35:15;13.60;99.90
37938;DHT22;23763;48.130;11.602;2022-10-18T01:37:44;13.70;99.90
37938;DHT22;23763;48.130;11.602;2022-10-18T01:40:11;13.60;99.90
37938;DHT22;23763;48.130;11.602;2022-10-18T01:42:39;13.60;99.90
37938;DHT22;23763;48.130;11.602;2022-10-18T01:45:05;13.60;99.90
37938;DHT22;23763;48.130;11.602;2022-10-18T01:47:33;13.60;99.90
37938;DHT22;23763;48.130;11.602;2022-10-18T01:50:04;13.60;99.90
37938;DHT22;23763;48.130;11.602;2022-10-18T01:52:29;13.50;99.90
37938;DHT22;23763;48.130;11.602;2022-10-18T01:54:56;13.40;99.90
37938;DHT22;23763;48.130;11.602;2022-10-18T01:57:29;13.40;99.90
37938;DHT22;23763;48.130;11.602;2022-10-18T02:05:32;13.40;99.90
37938;DHT22;23763;48.130;11.602;2022-10-18T02:10:48;13.30;99.90
37938;DHT22;23763;48.130;11.602;2022-10-18T02:13:18;13.20;99.90
37938;DHT22;23763;48.130;11.602;2022-10-18T02:15:46;13.20;99.90
37938;DHT22;23763;48.130;11.602;2022-10-18T02:18:23;13.20;99.90
37938;DHT22;23763;48.130;11.602;2022-10-18T02:20:50;13.10;99.90
37938;DHT22;23763;48.130;11.602;2022-10-18T02:23:20;13.10;99.90
37938;DHT22;23763;48.130;11.602;2022-10-18T02:25:50;13.20;99.90
37938;DHT22;23763;48.130;11.602;2022-10-18T02:28:26;13.30;99.90
37938;DHT22;23763;48.130;11.602;2022-10-18T02:31:05;13.30;99.90
37938;DHT22;23763;48.130;11.602;2022-10-18T02:36:39;13.30;99.90
37938;DHT22;23763;48.130;11.602;2022-10-18T02:39:12;13.20;99.90
37938;DHT22;23763;48.130;11.602;2022-10-18T02:41:39;13.20;99.90
37938;DHT22;23763;48.130;11.602;2022-10-18T02:44:13;13.20;99.90
37938;DHT22;23763;48.130;11.602;2022-10-18T02:46:39;13.20;99.90
37938;DHT22;23763;48.130;11.602;2022-10-18T02:49:05;13.30;99.90
37938;DHT22;23763;48.130;11.602;2022-10-18T02:51:31;13.20;99.90
37938;DHT22;23763;48.130;11.602;2022-10-18T02:53:56;13.20;99.90
37938;DHT22;23763;48.130;11.602;2022-10-18T02:56:22;13.20;99.90
37938;DHT22;23763;48.130;11.602;2022-10-18T02:58:51;13.10;99.90
37938;DHT22;23763;48.130;11.602;2022-10-18T03:01:16;13.10;99.90
37938;DHT22;23763;48.130;11.602;2022-10-18T03:03:42;13.10;99.90
37938;DHT22;23763;48.130;11.602;2022-10-18T03:06:07;13.10;99.90
37938;DHT22;23763;48.130;11.602;2022-10-18T03:08:34;13.10;99.90
37938;DHT22;23763;48.130;11.602;2022-10-18T03:11:03;13.00;99.90
37938;DHT22;23763;48.130;11.602;2022-10-18T03:13:28;13.00;99.90
37938;DHT22;23763;48.130;11.602;2022-10-18T03:15:54;12.90;99.90
37938;DHT22;23763;48.130;11.602;2022-10-18T03:18:26;12.90;99.90
37938;DHT22;23763;48.130;11.602;2022-10-18T03:20:54;12.90;99.90
37938;DHT22;23763;48.130;11.602;2022-10-18T03:23:19;12.90;99.90
37938;DHT22;23763;48.130;11.602;2022-10-18T03:25:45;13.10;99.90
37938;DHT22;23763;48.130;11.602;2022-10-18T03:28:11;13.00;99.90
37938;DHT22;23763;48.130;11.602;2022-10-18T03:30:36;12.90;99.90
37938;DHT22;23763;48.130;11.602;2022-10-18T03:33:04;12.90;99.90
37938;DHT22;23763;48.130;11.602;2022-10-18T03:35:30;12.80;99.90
37938;DHT22;23763;48.130;11.602;2022-10-18T03:37:55;12.90;99.90
37938;DHT22;23763;48.130;11.602;2022-10-18T03:40:21;12.90;99.90
37938;DHT22;23763;48.130;11.602;2022-10-18T03:42:46;12.90;99.90
37938;DHT22;23763;48.130;11.602;2022-10-18T03:45:12;12.90;99.90
37938;DHT22;23763;48.130;11.602;2022-10-18T03:47:38;12.90;99.90
37938;DHT22;23763;48.130;11.602;2022-10-18T03:50:03;12.80;99.90
37938;DHT22;23763;48.130;11.602;2022-10-18T03:52:29;12.80;99.90
37938;DHT22;23763;48.130;11.602;2022-10-18T03:54:55;12.70;99.90
37938;DHT22;23763;48.130;11.602;2022-10-18T03:57:20;12.70;99.90
37938;DHT22;23763;48.130;11.602;2022-10-18T03:59:46;12.80;99.90
37938;DHT22;23763;48.130;11.602;2022-10-18T04:02:13;12.80;99.90
37938;DHT22;23763;48.130;11.602;2022-10-18T04:04:38;12.80;99.90
37938;DHT22;23763;48.130;11.602;2022-10-18T04:07:04;12.70;99.90
37938;DHT22;23763;48.130;11.602;2022-10-18T04:09:30;12.80;99.90
37938;DHT22;23763;48.130;11.602;2022-10-18T04:11:55;12.80;99.90
37938;DHT22;23763;48.130;11.602;2022-10-18T04:14:21;12.90;99.90
37938;DHT22;23763;48.130;11.602;2022-10-18T04:16:54;12.90;99.90
37938;DHT22;23763;48.130;11.602;2022-10-18T04:19:20;12.90;99.90
37938;DHT22;23763;48.130;11.602;2022-10-18T04:21:49;12.90;99.90
37938;DHT22;23763;48.130;11.602;2022-10-18T04:24:16;12.90;99.90
37938;DHT22;23763;48.130;11.602;2022-10-18T04:26:42;12.90;99.90
37938;DHT22;23763;48.130;11.602;2022-10-18T04:29:07;12.90;99.90
37938;DHT22;23763;48.130;11.602;2022-10-18T04:31:33;12.90;99.90
37938;DHT22;23763;48.130;11.602;2022-10-18T04:33:59;12.90;99.90
37938;DHT22;23763;48.130;11.602;2022-10-18T04:36:24;12.90;99.90
37938;DHT22;23763;48.130;11.602;2022-10-18T04:38:50;12.90;99.90
37938;DHT22;23763;48.130;11.602;2022-10-18T04:41:16;12.90;99.90
37938;DHT22;23763;48.130;11.602;2022-10-18T04:43:41;12.90;99.90
37938;DHT22;23763;48.130;11.602;2022-10-18T04:46:07;12.90;99.90
37938;DHT22;23763;48.130;11.602;2022-10-18T04:48:32;12.90;99.90
37938;DHT22;23763;48.130;11.602;2022-10-18T04:50:58;12.80;99.90
37938;DHT22;23763;48.130;11.602;2022-10-18T04:53:24;12.80;99.90
37938;DHT22;23763;48.130;11.602;2022-10-18T04:55:52;12.80;99.90
37938;DHT22;23763;48.130;11.602;2022-10-18T04:58:20;12.80;99.90
37938;DHT22;23763;48.130;11.602;2022-10-18T05:00:49;12.80;99.90
37938;DHT22;23763;48.130;11.602;2022-10-18T05:03:17;12.80;99.90
37938;DHT22;23763;48.130;11.602;2022-10-18T05:05:52;12.80;99.90
37938;DHT22;23763;48.130;11.602;2022-10-18T05:08:22;12.80;99.90
37938;DHT22;23763;48.130;11.602;2022-10-18T05:10:48;12.70;99.90
37938;DHT22;23763;48.130;11.602;2022-10-18T05:13:13;12.80;99.90
37938;DHT22;23763;48.130;11.602;2022-10-18T05:15:39;12.80;99.90
37938;DHT22;23763;48.130;11.602;2022-10-18T05:18:05;12.80;99.90
37938;DHT22;23763;48.130;11.602;2022-10-18T05:20:33;12.80;99.90
37938;DHT22;23763;48.130;11.602;2022-10-18T05:22:59;12.80;99.90
37938;DHT22;23763;48.130;11.602;2022-10-18T05:25:24;12.80;99.90
37938;DHT22;23763;48.130;11.602;2022-10-18T05:27:50;12.60;99.90
37938;DHT22;23763;48.130;11.602;2022-10-18T05:30:15;12.60;99.90
37938;DHT22;23763;48.130;11.602;2022-10-18T05:32:41;12.50;99.90
37938;DHT22;23763;48.130;11.602;2022-10-18T05:35:07;12.60;99.90
37938;DHT22;23763;48.130;11.602;2022-10-18T05:37:32;12.60;99.90
37938;DHT22;23763;48.130;11.602;2022-10-18T05:39:58;12.60;99.90
37938;DHT22;23763;48.130;11.602;2022-10-18T05:42:24;12.70;99.90
37938;DHT22;23763;48.130;11.602;2022-10-18T05:44:49;12.70;99.90
37938;DHT22;23763;48.130;11.602;2022-10-18T05:47:15;12.70;99.90
37938;DHT22;23763;48.130;11.602;2022-10-18T05:49:40;12.80;99.90
37938;DHT22;23763;48.130;11.602;2022-10-18T05:52:06;12.90;99.90
37938;DHT22;23763;48.130;11.602;2022-10-18T05:54:35;13.00;99.90
37938;DHT22;23763;48.130;11.602;2022-10-18T05:57:00;13.00;99.90
37938;DHT22;23763;48.130;11.602;2022-10-18T05:59:26;13.10;99.90
37938;DHT22;23763;48.130;11.602;2022-10-18T06:01:54;13.20;99.90
37938;DHT22;23763;48.130;11.602;2022-10-18T06:04:25;13.20;99.90
37938;DHT22;23763;48.130;11.602;2022-10-18T06:06:51;13.20;99.90
37938;DHT22;23763;48.130;11.602;2022-10-18T06:09:20;13.40;99.90
37938;DHT22;23763;48.130;11.602;2022-10-18T06:11:46;13.40;99.90
37938;DHT22;23763;48.130;11.602;2022-10-18T06:14:12;13.40;99.90
37938;DHT22;23763;48.130;11.602;2022-10-18T06:16:48;13.60;99.90
37938;DHT22;23763;48.130;11.602;2022-10-18T06:19:15;13.70;99.90
37938;DHT22;23763;48.130;11.602;2022-10-18T06:21:53;13.80;99.90
37938;DHT22;23763;48.130;11.602;2022-10-18T06:24:19;13.80;99.90
37938;DHT22;23763;48.130;11.602;2022-10-18T06:26:46;13.80;99.90
37938;DHT22;23763;48.130;11.602;2022-10-18T06:29:11;13.80;99.90
37938;DHT22;23763;48.130;11.602;2022-10-18T06:31:46;13.80;99.90
37938;DHT22;23763;48.130;11.602;2022-10-18T06:34:17;13.80;99.90
37938;DHT22;23763;48.130;11.602;2022-10-18T06:36:43;13.90;99.90
37938;DHT22;23763;48.130;11.602;2022-10-18T06:39:14;14.00;99.90
37938;DHT22;23763;48.130;11.602;2022-10-18T06:41:40;14.10;99.90
37938;DHT22;23763;48.130;11.602;2022-10-18T06:44:06;14.10;99.90
37938;DHT22;23763;48.130;11.602;2022-10-18T06:46:45;14.10;99.90
37938;DHT22;23763;48.130;11.602;2022-10-18T06:49:12;14.20;99.90
37938;DHT22;23763;48.130;11.602;2022-10-18T06:51:42;14.20;99.90
37938;DHT22;23763;48.130;11.602;2022-10-18T06:54:09;14.20;99.90
37938;DHT22;23763;48.130;11.602;2022-10-18T06:56:35;14.20;99.90
37938;DHT22;23763;48.130;11.602;2022-10-18T06:59:04;14.50;99.90
37938;DHT22;23763;48.130;11.602;2022-10-18T07:01:38;14.50;99.90
37938;DHT22;23763;48.130;11.602;2022-10-18T07:04:03;14.60;99.90
37938;DHT22;23763;48.130;11.602;2022-10-18T07:06:29;14.70;99.90
37938;DHT22;23763;48.130;11.602;2022-10-18T07:08:55;14.80;99.90
37938;DHT22;23763;48.130;11.602;2022-10-18T07:11:23;14.90;99.90
37938;DHT22;23763;48.130;11.602;2022-10-18T07:14:07;14.80;99.90
37938;DHT22;23763;48.130;11.602;2022-10-18T07:16:36;14.80;99.90
37938;DHT22;23763;48.130;11.602;2022-10-18T07:19:10;14.80;99.90
37938;DHT22;23763;48.130;11.602;2022-10-18T07:21:36;15.00;99.90
37938;DHT22;23763;48.130;11.602;2022-10-18T07:24:02;15.20;99.90
37938;DHT22;23763;48.130;11.602;2022-10-18T07:26:30;15.40;99.90
37938;DHT22;23763;48.130;11.602;2022-10-18T07:28:59;15.50;99.90
37938;DHT22;23763;48.130;11.602;2022-10-18T07:31:25;15.50;99.90
37938;DHT22;23763;48.130;11.602;2022-10-18T07:33:52;15.60;99.90
37938;DHT22;23763;48.130;11.602;2022-10-18T07:36:24;15.60;99.90
37938;DHT22;23763;48.130;11.602;2022-10-18T07:38:53;15.70;99.90
37938;DHT22;23763;48.130;11.602;2022-10-18T07:41:19;15.70;99.90
37938;DHT22;23763;48.130;11.602;2022-10-18T07:43:50;15.80;99.90
37938;DHT22;23763;48.130;11.602;2022-10-18T07:46:16;16.00;99.90
37938;DHT22;23763;48.130;11.602;2022-10-18T07:48:42;16.10;99.90
37938;DHT22;23763;48.130;11.602;2022-10-18T07:51:08;16.30;99.90
37938;DHT22;23763;48.130;11.602;2022-10-18T07:53:35;16.50;99.90
37938;DHT22;23763;48.130;11.602;2022-10-18T07:56:03;16.60;99.90
37938;DHT22;23763;48.130;11.602;2022-10-18T07:58:31;16.60;99.90
37938;DHT22;23763;48.130;11.602;2022-10-18T08:01:00;16.70;99.90
37938;DHT22;23763;48.130;11.602;2022-10-18T08:03:25;16.80;99.90
37938;DHT22;23763;48.130;11.602;2022-10-18T08:05:53;16.80;99.90
37938;DHT22;23763;48.130;11.602;2022-10-18T08:08:20;16.80;99.90
37938;DHT22;23763;48.130;11.602;2022-10-18T08:10:46;17.00;99.90
37938;DHT22;23763;48.130;11.602;2022-10-18T08:13:12;17.20;99.90
37938;DHT22;23763;48.130;11.602;2022-10-18T08:15:37;17.30;99.90
37938;DHT22;23763;48.130;11.602;2022-10-18T08:18:03;17.30;99.90
37938;DHT22;23763;48.130;11.602;2022-10-18T08:20:31;17.20;99.90
37938;DHT22;23763;48.130;11.602;2022-10-18T08:23:06;17.10;99.90
37938;DHT22;23763;48.130;11.602;2022-10-18T08:25:33;17.00;99.90
37938;DHT22;23763;48.130;11.602;2022-10-18T08:27:58;17.00;99.90
37938;DHT22;23763;48.130;11.602;2022-10-18T08:30:27;17.00;99.90
37938;DHT22;23763;48.130;11.602;2022-10-18T08:32:52;17.00;99.90
37938;DHT22;23763;48.130;11.602;2022-10-18T08:35:18;17.00;99.90
37938;DHT22;23763;48.130;11.602;2022-10-18T08:37:50;17.00;99.90
37938;DHT22;23763;48.130;11.602;2022-10-18T08:40:15;16.90;99.90
37938;DHT22;23763;48.130;11.602;2022-10-18T08:43:03;16.90;99.90
37938;DHT22;23763;48.130;11.602;2022-10-18T08:45:35;17.00;99.90
37938;DHT22;23763;48.130;11.602;2022-10-18T08:48:03;17.10;99.90
37938;DHT22;23763;48.130;11.602;2022-10-18T08:50:32;17.20;99.90
37938;DHT22;23763;48.130;11.602;2022-10-18T08:55:51;17.50;99.90
37938;DHT22;23763;48.130;11.602;2022-10-18T08:58:29;17.60;99.90
37938;DHT22;23763;48.130;11.602;2022-10-18T09:06:17;17.90;99.90
37938;DHT22;23763;48.130;11.602;2022-10-18T09:20:09;18.80;99.90
37938;DHT22;23763;48.130;11.602;2022-10-18T09:32:56;19.40;99.90
37938;DHT22;23763;48.130;11.602;2022-10-18T09:35:43;19.50;99.90
37938;DHT22;23763;48.130;11.602;2022-10-18T09:38:15;19.40;99.90
37938;DHT22;23763;48.130;11.602;2022-10-18T09:41:11;19.50;99.90
37938;DHT22;23763;48.130;11.602;2022-10-18T09:44:13;19.60;99.90
37938;DHT22;23763;48.130;11.602;2022-10-18T09:46:39;19.90;99.90
37938;DHT22;23763;48.130;11.602;2022-10-18T09:49:22;20.20;99.90
37938;DHT22;23763;48.130;11.602;2022-10-18T09:51:50;20.40;99.90
37938;DHT22;23763;48.130;11.602;2022-10-18T09:57:05;20.50;99.90
37938;DHT22;23763;48.130;11.602;2022-10-18T09:59:46;20.70;99.90
37938;DHT22;23763;48.130;11.602;2022-10-18T10:02:15;20.80;99.90
37938;DHT22;23763;48.130;11.602;2022-10-18T10:04:41;20.80;99.90
37938;DHT22;23763;48.130;11.602;2022-10-18T10:07:11;21.00;99.90
37938;DHT22;23763;48.130;11.602;2022-10-18T10:10:26;21.30;99.90
37938;DHT22;23763;48.130;11.602;2022-10-18T10:12:38;21.40;99.90
37938;DHT22;23763;48.130;11.602;2022-10-18T10:15:18;21.40;99.90
37938;DHT22;23763;48.130;11.602;2022-10-18T10:20:56;21.40;99.90
37938;DHT22;23763;48.130;11.602;2022-10-18T10:23:38;21.20;99.90
37938;DHT22;23763;48.130;11.602;2022-10-18T10:26:32;21.00;99.90
37938;DHT22;23763;48.130;11.602;2022-10-18T10:28:58;20.80;99.90
37938;DHT22;23763;48.130;11.602;2022-10-18T10:36:50;20.50;99.90
37938;DHT22;23763;48.130;11.602;2022-10-18T10:39:17;20.50;99.90
37938;DHT22;23763;48.130;11.602;2022-10-18T10:41:47;20.40;99.90
37938;DHT22;23763;48.130;11.602;2022-10-18T10:44:19;20.50;99.90
37938;DHT22;23763;48.130;11.602;2022-10-18T10:46:45;20.50;99.90
37938;DHT22;23763;48.130;11.602;2022-10-18T10:49:23;20.60;99.90
37938;DHT22;23763;48.130;11.602;2022-10-18T10:51:59;20.70;99.90
37938;DHT22;23763;48.130;11.602;2022-10-18T10:54:26;20.70;99.90
37938;DHT22;23763;48.130;11.602;2022-10-18T10:56:56;20.80;99.90
37938;DHT22;23763;48.130;11.602;2022-10-18T10:59:39;20.90;99.90
37938;DHT22;23763;48.130;11.602;2022-10-18T11:04:39;21.00;99.90
37938;DHT22;23763;48.130;11.602;2022-10-18T11:12:33;21.20;99.90
37938;DHT22;23763;48.130;11.602;2022-10-18T11:15:17;21.30;99.90
37938;DHT22;23763;48.130;11.602;2022-10-18T11:20:39;21.40;99.90
37938;DHT22;23763;48.130;11.602;2022-10-18T11:23:09;21.50;99.90
37938;DHT22;23763;48.130;11.602;2022-10-18T11:31:21;21.60;99.90
37938;DHT22;23763;48.130;11.602;2022-10-18T11:39:57;21.80;99.90
37938;DHT22;23763;48.130;11.602;2022-10-18T11:42:43;22.00;99.90
37938;DHT22;23763;48.130;11.602;2022-10-18T11:47:59;22.00;99.90
37938;DHT22;23763;48.130;11.602;2022-10-18T11:56:51;22.20;99.90
37938;DHT22;23763;48.130;11.602;2022-10-18T11:59:41;22.30;99.90
37938;DHT22;23763;48.130;11.602;2022-10-18T12:04:50;22.40;99.90
37938;DHT22;23763;48.130;11.602;2022-10-18T12:07:17;22.30;99.90
37938;DHT22;23763;48.130;11.602;2022-10-18T12:09:46;22.30;99.90
37938;DHT22;23763;48.130;11.602;2022-10-18T12:12:29;22.20;99.90
37938;DHT22;23763;48.130;11.602;2022-10-18T12:14:59;22.10;99.90
37938;DHT22;23763;48.130;11.602;2022-10-18T12:17:29;22.10;99.90
37938;DHT22;23763;48.130;11.602;2022-10-18T12:19:58;22.10;99.90
37938;DHT22;23763;48.130;11.602;2022-10-18T12:22:35;22.20;99.90
37938;DHT22;23763;48.130;11.602;2022-10-18T12:25:03;22.20;99.90
37938;DHT22;23763;48.130;11.602;2022-10-18T12:27:51;22.30;99.90
37938;DHT22;23763;48.130;11.602;2022-10-18T12:33:19;22.40;99.90
37938;DHT22;23763;48.130;11.602;2022-10-18T12:36:03;22.50;99.90
37938;DHT22;23763;48.130;11.602;2022-10-18T12:38:33;22.50;99.90
37938;DHT22;23763;48.130;11.602;2022-10-18T12:41:00;22.40;99.90
37938;DHT22;23763;48.130;11.602;2022-10-18T12:43:28;22.40;99.90
37938;DHT22;23763;48.130;11.602;2022-10-18T12:46:00;22.40;99.90
37938;DHT22;23763;48.130;11.602;2022-10-18T12:48:36;22.40;99.90
37938;DHT22;23763;48.130;11.602;2022-10-18T12:51:16;22.30;99.90
37938;DHT22;23763;48.130;11.602;2022-10-18T12:53:52;22.30;99.90
37938;DHT22;23763;48.130;11.602;2022-10-18T13:17:28;22.60;99.90
37938;DHT22;23763;48.130;11.602;2022-10-18T13:34:45;22.30;99.90
37938;DHT22;23763;48.130;11.602;2022-10-18T13:39:43;22.30;99.90
37938;DHT22;23763;48.130;11.602;2022-10-18T13:42:19;22.30;99.90
37938;DHT22;23763;48.130;11.602;2022-10-18T13:44:51;22.30;99.90
37938;DHT22;23763;48.130;11.602;2022-10-18T13:47:35;22.40;99.90
37938;DHT22;23763;48.130;11.602;2022-10-18T13:52:53;22.50;99.90
37938;DHT22;23763;48.130;11.602;2022-10-18T14:06:06;22.50;99.90
37938;DHT22;23763;48.130;11.602;2022-10-18T14:08:47;22.50;99.90
37938;DHT22;23763;48.130;11.602;2022-10-18T14:11:40;22.50;99.90
37938;DHT22;23763;48.130;11.602;2022-10-18T14:14:32;22.50;99.90
37938;DHT22;23763;48.130;11.602;2022-10-18T14:19:55;22.20;99.90
37938;DHT22;23763;48.130;11.602;2022-10-18T14:22:30;22.10;99.90
37938;DHT22;23763;48.130;11.602;2022-10-18T14:24:59;22.00;99.90
37938;DHT22;23763;48.130;11.602;2022-10-18T14:27:29;22.00;99.90
37938;DHT22;23763;48.130;11.602;2022-10-18T14:30:18;21.90;99.90
37938;DHT22;23763;48.130;11.602;2022-10-18T14:32:49;21.90;99.90
37938;DHT22;23763;48.130;11.602;2022-10-18T14:35:24;21.80;99.90
37938;DHT22;23763;48.130;11.602;2022-10-18T14:37:52;21.80;99.90
37938;DHT22;23763;48.130;11.602;2022-10-18T14:40:37;21.80;99.90
37938;DHT22;23763;48.130;11.602;2022-10-18T14:43:12;21.70;99.90
37938;DHT22;23763;48.130;11.602;2022-10-18T14:45:39;21.70;99.90
37938;DHT22;23763;48.130;11.602;2022-10-18T14:48:26;21.70;99.90
37938;DHT22;23763;48.130;11.602;2022-10-18T14:50:57;21.80;99.90
37938;DHT22;23763;48.130;11.602;2022-10-18T14:53:27;21.80;99.90
37938;DHT22;23763;48.130;11.602;2022-10-18T14:56:00;21.90;99.90
37938;DHT22;23763;48.130;11.602;2022-10-18T14:58:30;21.90;99.90
37938;DHT22;23763;48.130;11.602;2022-10-18T15:00:58;21.80;99.90
37938;DHT22;23763;48.130;11.602;2022-10-18T15:03:24;21.70;99.90
37938;DHT22;23763;48.130;11.602;2022-10-18T15:05:53;21.60;99.90
37938;DHT22;23763;48.130;11.602;2022-10-18T15:08:20;21.40;99.90
37938;DHT22;23763;48.130;11.602;2022-10-18T15:10:48;21.40;99.90
37938;DHT22;23763;48.130;11.602;2022-10-18T15:13:17;21.30;99.90
37938;DHT22;23763;48.130;11.602;2022-10-18T15:15:43;21.30;99.90
37938;DHT22;23763;48.130;11.602;2022-10-18T15:18:20;21.30;99.90
37938;DHT22;23763;48.130;11.602;2022-10-18T15:21:06;21.20;99.90
37938;DHT22;23763;48.130;11.602;2022-10-18T15:23:32;21.20;99.90
37938;DHT22;23763;48.130;11.602;2022-10-18T15:26:10;21.10;99.90
37938;DHT22;23763;48.130;11.602;2022-10-18T15:28:42;21.10;99.90
37938;DHT22;23763;48.130;11.602;2022-10-18T15:31:26;21.10;99.90
37938;DHT22;23763;48.130;11.602;2022-10-18T15:33:54;21.10;99.90
37938;DHT22;23763;48.130;11.602;2022-10-18T15:36:31;21.00;99.90
37938;DHT22;23763;48.130;11.602;2022-10-18T15:41:55;21.00;99.90
37938;DHT22;23763;48.130;11.602;2022-10-18T15:44:27;21.20;99.90
37938;DHT22;23763;48.130;11.602;2022-10-18T15:52:38;20.90;99.90
37938;DHT22;23763;48.130;11.602;2022-10-18T15:58:11;20.80;99.90
37938;DHT22;23763;48.130;11.602;2022-10-18T16:00:45;20.80;99.90
37938;DHT22;23763;48.130;11.602;2022-10-18T16:03:11;20.80;99.90
37938;DHT22;23763;48.130;11.602;2022-10-18T16:05:37;20.80;99.90
37938;DHT22;23763;48.130;11.602;2022-10-18T16:08:03;20.70;99.90
37938;DHT22;23763;48.130;11.602;2022-10-18T16:10:29;20.70;99.90
37938;DHT22;23763;48.130;11.602;2022-10-18T16:12:55;20.70;99.90
37938;DHT22;23763;48.130;11.602;2022-10-18T16:15:20;20.60;99.90
37938;DHT22;23763;48.130;11.602;2022-10-18T16:17:47;20.60;99.90
37938;DHT22;23763;48.130;11.602;2022-10-18T16:20:20;20.60;99.90
37938;DHT22;23763;48.130;11.602;2022-10-18T16:22:46;20.50;99.90
37938;DHT22;23763;48.130;11.602;2022-10-18T16:25:12;20.50;99.90
37938;DHT22;23763;48.130;11.602;2022-10-18T16:27:37;20.40;99.90
37938;DHT22;23763;48.130;11.602;2022-10-18T16:30:16;20.30;99.90
37938;DHT22;23763;48.130;11.602;2022-10-18T16:32:42;20.20;99.90
37938;DHT22;23763;48.130;11.602;2022-10-18T16:35:08;20.30;99.90
37938;DHT22;23763;48.130;11.602;2022-10-18T16:37:36;20.10;99.90
37938;DHT22;23763;48.130;11.602;2022-10-18T16:40:22;20.00;99.90
37938;DHT22;23763;48.130;11.602;2022-10-18T16:42:48;20.00;99.90
37938;DHT22;23763;48.130;11.602;2022-10-18T16:45:14;19.90;99.90
37938;DHT22;23763;48.130;11.602;2022-10-18T16:47:43;19.80;99.90
37938;DHT22;23763;48.130;11.602;2022-10-18T16:50:17;19.70;99.90
37938;DHT22;23763;48.130;11.602;2022-10-18T16:52:47;19.60;99.90
37938;DHT22;23763;48.130;11.602;2022-10-18T16:55:32;19.50;99.90
37938;DHT22;23763;48.130;11.602;2022-10-18T16:58:24;19.40;99.90
37938;DHT22;23763;48.130;11.602;2022-10-18T17:00:56;19.30;99.90
37938;DHT22;23763;48.130;11.602;2022-10-18T17:03:22;19.20;99.90
37938;DHT22;23763;48.130;11.602;2022-10-18T17:05:54;19.20;99.90
37938;DHT22;23763;48.130;11.602;2022-10-18T17:08:26;19.20;99.90
37938;DHT22;23763;48.130;11.602;2022-10-18T17:10:56;19.10;99.90
37938;DHT22;23763;48.130;11.602;2022-10-18T17:13:25;19.10;99.90
37938;DHT22;23763;48.130;11.602;2022-10-18T17:15:51;18.90;99.90
37938;DHT22;23763;48.130;11.602;2022-10-18T17:18:26;18.90;99.90
37938;DHT22;23763;48.130;11.602;2022-10-18T17:20:52;18.80;99.90
37938;DHT22;23763;48.130;11.602;2022-10-18T17:23:18;18.70;99.90
37938;DHT22;23763;48.130;11.602;2022-10-18T17:25:44;18.60;99.90
37938;DHT22;23763;48.130;11.602;2022-10-18T17:28:15;18.50;99.90
37938;DHT22;23763;48.130;11.602;2022-10-18T17:30:43;18.50;99.90
37938;DHT22;23763;48.130;11.602;2022-10-18T17:33:09;18.40;99.90
37938;DHT22;23763;48.130;11.602;2022-10-18T17:35:34;18.40;99.90
37938;DHT22;23763;48.130;11.602;2022-10-18T17:38:00;18.40;99.90
37938;DHT22;23763;48.130;11.602;2022-10-18T17:40:26;18.50;99.90
37938;DHT22;23763;48.130;11.602;2022-10-18T17:42:52;18.40;99.90
37938;DHT22;23763;48.130;11.602;2022-10-18T17:45:19;18.40;99.90
37938;DHT22;23763;48.130;11.602;2022-10-18T17:47:45;18.50;99.90
37938;DHT22;23763;48.130;11.602;2022-10-18T17:50:11;18.40;99.90
37938;DHT22;23763;48.130;11.602;2022-10-18T17:52:44;18.40;99.90
37938;DHT22;23763;48.130;11.602;2022-10-18T17:55:12;18.30;99.90
37938;DHT22;23763;48.130;11.602;2022-10-18T17:57:39;18.40;99.90
37938;DHT22;23763;48.130;11.602;2022-10-18T18:00:06;18.30;99.90
37938;DHT22;23763;48.130;11.602;2022-10-18T18:02:34;18.20;99.90
37938;DHT22;23763;48.130;11.602;2022-10-18T18:05:01;18.30;99.90
37938;DHT22;23763;48.130;11.602;2022-10-18T18:07:29;18.20;99.90
37938;DHT22;23763;48.130;11.602;2022-10-18T18:09:55;18.30;99.90
37938;DHT22;23763;48.130;11.602;2022-10-18T18:12:21;18.20;99.90
37938;DHT22;23763;48.130;11.602;2022-10-18T18:14:49;18.20;99.90
37938;DHT22;23763;48.130;11.602;2022-10-18T18:17:19;18.30;99.90
37938;DHT22;23763;48.130;11.602;2022-10-18T18:19:45;18.30;99.90
37938;DHT22;23763;48.130;11.602;2022-10-18T18:22:11;18.20;99.90
37938;DHT22;23763;48.130;11.602;2022-10-18T18:24:38;18.20;99.90
37938;DHT22;23763;48.130;11.602;2022-10-18T18:27:07;18.10;99.90